Time;durP1;ratioP1;P1;durP2;ratioP2;P2;SDS_P1;SDS_P2;PMS_P1;PMS_P2;Temp;Humidity;BMP_temperature;BMP_pressure;BME280_temperature;BME280_humidity;BME280_pressure;Samples;Min_cycle;Max_cycle;Signal;HPM_P1;HPM_P2
2021/09/25 00:01:20;;;;;;;46.75;8.40;;;;;;;13.14;79.03;99152.44;5104124;28;20023;-73
2021/09/25 00:03:45;;;;;;;45.65;8.07;;;;;;;13.17;79.06;99166.25;5104123;28;20308;-72
2021/09/25 00:06:12;;;;;;;36.30;7.28;;;;;;;13.17;78.64;99172.31;5103889;28;20105;-75
2021/09/25 00:08:38;;;;;;;51.33;9.07;;;;;;;13.27;78.56;99185.84;5103758;28;20024;-72
2021/09/25 00:11:04;;;;;;;55.45;11.52;;;;;;;13.25;78.50;99188.50;5085596;28;20020;-73
2021/09/25 00:13:29;;;;;;;51.28;9.07;;;;;;;13.25;78.96;99196.31;5103767;28;20028;-72
2021/09/25 00:15:55;;;;;;;52.97;8.98;;;;;;;13.31;78.81;99216.06;5103075;28;20051;-74
2021/09/25 00:18:20;;;;;;;42.38;8.40;;;;;;;13.25;79.06;99206.75;5103825;28;20032;-73
2021/09/25 00:20:45;;;;;;;52.13;8.50;;;;;;;13.22;79.24;99217.28;5103715;28;20023;-72
2021/09/25 00:23:11;;;;;;;39.97;7.20;;;;;;;13.31;78.83;99216.06;5103655;28;20047;-73
2021/09/25 00:25:36;;;;;;;36.85;6.97;;;;;;;13.27;79.18;99230.13;5085753;28;20016;-73
2021/09/25 00:28:02;;;;;;;47.38;6.75;;;;;;;13.24;79.14;99212.03;5103657;28;20080;-74
2021/09/25 00:30:27;;;;;;;42.58;7.70;;;;;;;13.20;79.26;99223.44;5103893;28;20054;-75
2021/09/25 00:32:53;;;;;;;44.35;8.13;;;;;;;13.22;78.85;99229.47;5103659;28;20103;-74
2021/09/25 00:35:18;;;;;;;49.22;9.15;;;;;;;13.19;79.14;99221.75;5103414;28;20431;-74
2021/09/25 00:37:44;;;;;;;63.83;8.10;;;;;;;13.22;79.21;99222.50;5103554;28;20053;-73
2021/09/25 00:40:11;;;;;;;47.13;8.32;;;;;;;13.23;79.23;99224.19;5103755;28;20024;-75
2021/09/25 00:42:37;;;;;;;46.60;8.07;;;;;;;13.26;79.57;99233.63;5085377;28;20017;-73
2021/09/25 00:45:05;;;;;;;47.80;8.75;;;;;;;13.26;79.40;99229.28;5103702;28;20020;-73
2021/09/25 00:47:30;;;;;;;47.13;9.07;;;;;;;13.30;79.28;99256.09;5103601;28;20039;-73
2021/09/25 00:49:56;;;;;;;47.83;8.90;;;;;;;13.42;79.12;99267.78;5085165;28;20024;-74
2021/09/25 00:52:21;;;;;;;44.22;8.90;;;;;;;13.41;79.17;99253.06;5103815;28;20158;-74
2021/09/25 00:54:47;;;;;;;48.08;8.90;;;;;;;13.49;78.77;99271.88;5103384;28;20496;-73
2021/09/25 00:57:13;;;;;;;48.40;8.73;;;;;;;13.48;78.91;99271.94;5119010;28;20020;-72
2021/09/25 00:59:38;;;;;;;45.13;8.70;;;;;;;13.63;78.19;99273.97;5103391;28;20077;-73
2021/09/25 01:02:04;;;;;;;52.10;9.38;;;;;;;13.57;78.47;99269.00;5103278;28;20028;-73
2021/09/25 01:04:29;;;;;;;55.13;9.15;;;;;;;13.60;78.00;99268.88;5102975;28;20024;-73
2021/09/25 01:06:55;;;;;;;38.28;7.40;;;;;;;13.61;77.70;99257.50;5085238;28;20020;-73
2021/09/25 01:09:20;;;;;;;46.47;7.88;;;;;;;13.56;77.90;99276.88;5103334;28;20024;-73
2021/09/25 01:11:48;;;;;;;43.53;7.45;;;;;;;13.56;77.53;99274.25;5103313;28;20032;-71
2021/09/25 01:14:13;;;;;;;38.20;7.63;;;;;;;13.58;77.25;99267.22;5103319;28;20055;-72
2021/09/25 01:16:39;;;;;;;29.42;4.90;;;;;;;13.59;77.12;99277.63;5103940;28;20024;-74
2021/09/25 01:19:04;;;;;;;44.70;7.32;;;;;;;13.50;77.27;99276.19;5103919;28;20024;-74
2021/09/25 01:21:30;;;;;;;48.70;9.18;;;;;;;13.47;77.19;99268.47;5103412;28;20035;-73
2021/09/25 01:23:55;;;;;;;41.20;8.85;;;;;;;13.37;77.59;99228.03;5103017;28;20046;-73
2021/09/25 01:26:21;;;;;;;56.05;8.93;;;;;;;13.42;77.33;99275.59;5105087;28;20090;-73
2021/09/25 01:28:47;;;;;;;41.42;8.18;;;;;;;13.38;77.50;99276.63;5107056;28;20032;-72
2021/09/25 01:31:15;;;;;;;43.78;8.82;;;;;;;13.44;77.16;99285.97;5107048;28;20051;-73
2021/09/25 01:33:46;;;;;;;39.15;8.13;;;;;;;13.41;77.38;99283.47;5106962;28;20035;-74
2021/09/25 01:36:13;;;;;;;39.45;8.40;;;;;;;13.46;76.88;99281.56;5106812;28;20031;-74
2021/09/25 01:38:40;;;;;;;52.65;8.27;;;;;;;13.45;77.22;99285.09;5106960;28;20024;-74
2021/09/25 01:41:06;;;;;;;50.88;7.47;;;;;;;13.45;77.06;99283.31;5107033;28;20020;-73
2021/09/25 01:43:32;;;;;;;52.05;9.05;;;;;;;13.43;76.68;99297.31;5106777;28;20039;-73
2021/09/25 01:45:57;;;;;;;39.50;7.43;;;;;;;13.39;76.95;99280.94;5106725;28;20053;-74
2021/09/25 01:48:23;;;;;;;41.20;7.88;;;;;;;13.42;76.40;99290.41;5106736;28;20058;-73
2021/09/25 01:50:50;;;;;;;43.40;9.68;;;;;;;13.37;76.61;99294.03;5106531;28;20050;-72
2021/09/25 01:53:16;;;;;;;42.78;8.20;;;;;;;13.37;76.86;99288.00;5106816;28;20016;-72
2021/09/25 01:55:41;;;;;;;40.67;8.75;;;;;;;13.29;76.65;99301.28;5106426;28;20419;-73
2021/09/25 01:58:07;;;;;;;40.70;6.60;;;;;;;13.31;76.16;99312.50;5106667;28;20021;-72
2021/09/25 02:00:34;;;;;;;41.03;6.85;;;;;;;13.39;75.69;99301.78;5088291;28;20484;-74
2021/09/25 02:03:01;;;;;;;36.78;6.93;;;;;;;13.24;76.12;99309.28;5106697;28;20016;-72
2021/09/25 02:05:27;;;;;;;27.92;7.43;;;;;;;13.21;76.10;99325.03;5105957;28;20405;-73
2021/09/25 02:07:52;;;;;;;45.00;7.78;;;;;;;13.14;75.89;99314.00;5106268;28;20483;-74
2021/09/25 02:10:18;;;;;;;38.53;7.47;;;;;;;13.14;76.07;99328.78;5106404;28;20024;-74
2021/09/25 02:12:44;;;;;;;40.08;8.15;;;;;;;13.04;76.12;99323.03;5106433;28;20091;-73
2021/09/25 02:15:10;;;;;;;40.17;7.22;;;;;;;13.02;76.22;99317.88;5106342;28;20044;-74
2021/09/25 02:17:35;;;;;;;33.67;5.93;;;;;;;13.07;76.12;99322.06;5106202;28;20084;-72
2021/09/25 02:20:03;;;;;;;38.42;7.40;;;;;;;13.09;75.96;99335.91;5106016;28;20059;-72
2021/09/25 02:22:28;;;;;;;33.70;7.57;;;;;;;13.11;76.11;99337.56;5106200;28;20030;-77
2021/09/25 02:24:53;;;;;;;46.92;7.80;;;;;;;13.03;76.14;99331.78;5087683;28;20124;-74
2021/09/25 02:27:19;;;;;;;28.98;6.18;;;;;;;13.05;75.54;99329.13;5105722;28;20024;-74
2021/09/25 02:29:45;;;;;;;31.73;7.15;;;;;;;13.06;75.62;99323.84;5106016;28;20028;-74
2021/09/25 02:32:11;;;;;;;35.75;7.63;;;;;;;13.06;75.28;99320.38;5105817;28;20054;-75
2021/09/25 02:34:37;;;;;;;46.22;7.97;;;;;;;13.12;75.08;99336.66;5087576;28;20019;-72
2021/09/25 02:37:05;;;;;;;27.83;5.68;;;;;;;13.10;75.31;99346.28;5105050;28;20016;-74
2021/09/25 02:39:31;;;;;;;36.50;6.28;;;;;;;13.06;75.10;99342.09;5105563;28;20445;-72
2021/09/25 02:41:57;;;;;;;36.33;6.50;;;;;;;13.06;74.97;99347.31;5105559;28;20107;-75
2021/09/25 02:44:23;;;;;;;32.50;7.63;;;;;;;13.04;75.38;99359.53;5105749;28;20032;-73
2021/09/25 02:46:49;;;;;;;37.80;6.90;;;;;;;12.98;75.27;99368.41;5105635;28;20020;-74
2021/09/25 02:49:19;;;;;;;30.40;5.75;;;;;;;12.96;75.42;99348.50;5105586;28;20027;-76
2021/09/25 02:51:46;;;;;;;31.52;5.25;;;;;;;12.96;75.55;99351.97;5105478;28;20029;-72
2021/09/25 02:54:11;;;;;;;42.80;6.85;;;;;;;12.89;75.48;99346.13;5105391;28;20228;-71
2021/09/25 02:56:37;;;;;;;43.33;6.32;;;;;;;12.86;75.41;99343.63;5087224;28;20028;-72
2021/09/25 02:59:03;;;;;;;36.95;6.22;;;;;;;12.79;75.41;99334.34;5105261;28;20022;-72
2021/09/25 03:01:29;;;;;;;34.92;6.40;;;;;;;12.90;75.22;99352.19;5105436;28;20036;-72
2021/09/25 03:03:55;;;;;;;30.50;5.95;;;;;;;12.86;74.99;99356.66;5086963;28;20113;-73
2021/09/25 03:06:25;;;;;;;29.33;4.82;;;;;;;12.82;75.19;99362.88;5105015;28;20046;-73
2021/09/25 03:08:50;;;;;;;27.50;6.28;;;;;;;12.84;75.09;99371.47;5087039;28;20023;-72
2021/09/25 03:11:17;;;;;;;36.58;5.68;;;;;;;12.83;74.85;99377.59;5105220;28;20044;-73
2021/09/25 03:13:42;;;;;;;37.38;6.25;;;;;;;12.82;74.96;99382.88;5105196;28;20024;-73
2021/09/25 03:16:08;;;;;;;36.25;5.80;;;;;;;12.81;74.73;99389.81;5105290;28;20080;-73
2021/09/25 03:18:33;;;;;;;29.15;5.10;;;;;;;12.76;74.73;99391.75;5104846;28;20032;-73
2021/09/25 03:20:59;;;;;;;31.45;5.28;;;;;;;12.77;75.05;99390.84;5104718;28;20048;-73
2021/09/25 03:23:24;;;;;;;41.50;6.90;;;;;;;12.77;74.89;99394.31;5104589;28;20047;-73
2021/09/25 03:25:50;;;;;;;40.25;7.28;;;;;;;12.73;74.87;99391.84;5104683;28;20012;-73
2021/09/25 03:28:16;;;;;;;37.67;7.53;;;;;;;12.60;74.82;99378.41;5104678;28;20026;-74
2021/09/25 03:30:41;;;;;;;25.55;6.47;;;;;;;12.70;74.75;99394.56;5104830;28;20031;-73
2021/09/25 03:33:06;;;;;;;41.80;5.50;;;;;;;12.70;74.81;99412.78;5104513;28;20031;-72
2021/09/25 03:35:32;;;;;;;36.70;6.18;;;;;;;12.64;74.76;99406.88;5104318;28;20031;-72
2021/09/25 03:38:00;;;;;;;35.85;5.43;;;;;;;12.60;74.88;99407.88;5104451;28;20035;-72
2021/09/25 03:40:25;;;;;;;36.38;5.32;;;;;;;12.63;74.64;99413.00;5104838;28;20016;-72
2021/09/25 03:42:51;;;;;;;33.20;5.88;;;;;;;12.52;74.92;99404.69;5104850;28;20224;-73
2021/09/25 03:45:16;;;;;;;24.45;5.38;;;;;;;12.60;74.94;99414.84;5086412;28;20028;-73
2021/09/25 03:47:42;;;;;;;38.88;5.47;;;;;;;12.44;74.78;99388.47;5086020;28;20020;-72
2021/09/25 03:50:08;;;;;;;30.98;5.03;;;;;;;12.49;74.70;99394.38;5085783;28;20020;-72
2021/09/25 03:52:33;;;;;;;26.48;6.18;;;;;;;12.48;74.83;99401.31;5104129;28;20024;-73
2021/09/25 03:54:59;;;;;;;29.48;4.65;;;;;;;12.43;74.79;99399.78;5104386;28;20023;-74
2021/09/25 03:57:24;;;;;;;27.63;5.38;;;;;;;12.47;74.89;99404.84;5103944;28;20031;-73
2021/09/25 03:59:49;;;;;;;33.22;5.38;;;;;;;12.57;74.96;99420.16;5104163;28;20016;-73
2021/09/25 04:02:15;;;;;;;21.83;4.00;;;;;;;12.48;75.08;99409.13;5085803;28;20015;-75
2021/09/25 04:04:40;;;;;;;28.40;5.72;;;;;;;12.52;75.08;99409.88;5103821;28;20015;-73
2021/09/25 04:07:06;;;;;;;21.77;5.03;;;;;;;12.54;75.11;99418.47;5104356;28;20020;-73
2021/09/25 04:09:31;;;;;;;33.63;6.07;;;;;;;12.55;75.31;99429.75;5103702;28;20081;-73
2021/09/25 04:11:56;;;;;;;30.02;5.80;;;;;;;12.50;75.09;99422.97;5104023;28;20069;-73
2021/09/25 04:14:23;;;;;;;26.65;5.85;;;;;;;12.55;75.05;99424.56;5103780;28;20106;-77
2021/09/25 04:16:48;;;;;;;19.02;4.15;;;;;;;12.50;75.04;99416.88;5103836;28;20036;-74
2021/09/25 04:19:14;;;;;;;28.70;5.22;;;;;;;12.49;75.01;99426.44;5103930;28;20032;-73
2021/09/25 04:21:40;;;;;;;35.13;5.38;;;;;;;12.54;74.36;99423.69;5103628;28;20020;-73
2021/09/25 04:24:06;;;;;;;33.65;5.68;;;;;;;12.47;74.62;99427.41;5103464;28;20048;-73
2021/09/25 04:26:31;;;;;;;28.10;4.55;;;;;;;12.37;74.52;99413.81;5103522;28;20015;-74
2021/09/25 04:28:57;;;;;;;30.08;5.43;;;;;;;12.43;74.55;99426.66;5103581;28;20035;-74
2021/09/25 04:31:23;;;;;;;32.92;5.85;;;;;;;12.39;74.75;99425.91;5103507;28;20458;-74
2021/09/25 04:33:49;;;;;;;31.45;5.05;;;;;;;12.38;74.52;99432.00;5103641;28;20055;-73
2021/09/25 04:36:14;;;;;;;39.05;6.45;;;;;;;12.38;74.63;99447.63;5085008;28;20028;-73
2021/09/25 04:38:40;;;;;;;24.55;5.30;;;;;;;12.29;74.89;99432.28;5103460;28;20039;-73
2021/09/25 04:41:05;;;;;;;29.42;5.47;;;;;;;12.38;74.84;99447.63;5085526;28;20072;-74
2021/09/25 04:43:30;;;;;;;27.13;4.75;;;;;;;12.27;74.88;99457.50;5103871;28;20020;-73
2021/09/25 04:45:56;;;;;;;32.08;5.15;;;;;;;12.30;75.18;99477.41;5103534;28;20020;-73
2021/09/25 04:48:21;;;;;;;38.17;5.43;;;;;;;12.27;74.89;99467.91;5103545;28;20409;-75
2021/09/25 04:50:47;;;;;;;26.73;4.75;;;;;;;12.22;74.96;99457.66;5103774;28;20020;-74
2021/09/25 04:53:13;;;;;;;19.25;3.83;;;;;;;12.20;75.05;99446.44;5104056;28;20095;-73
2021/09/25 04:55:40;;;;;;;31.02;4.93;;;;;;;12.26;74.99;99463.63;5103135;28;20024;-73
2021/09/25 04:58:06;;;;;;;24.77;3.88;;;;;;;12.21;74.94;99481.09;5085240;28;20039;-74
2021/09/25 05:00:32;;;;;;;36.03;4.88;;;;;;;12.23;74.59;99479.31;5104090;28;20024;-73
2021/09/25 05:02:58;;;;;;;31.48;5.10;;;;;;;12.21;74.92;99489.78;5107605;28;20050;-72
2021/09/25 05:05:23;;;;;;;24.90;5.57;;;;;;;12.08;74.57;99460.66;5107183;28;20024;-73
2021/09/25 05:07:49;;;;;;;30.00;5.65;;;;;;;12.19;74.83;99477.72;5107652;28;20069;-73
2021/09/25 05:10:15;;;;;;;29.45;5.53;;;;;;;12.08;74.78;99472.81;5107482;28;20119;-73
2021/09/25 05:12:40;;;;;;;20.80;4.60;;;;;;;12.21;74.79;99491.53;5089081;28;20027;-73
2021/09/25 05:15:06;;;;;;;26.60;5.53;;;;;;;12.17;74.67;99490.78;5107225;28;20024;-73
2021/09/25 05:17:31;;;;;;;23.05;4.75;;;;;;;12.23;74.48;99502.75;5107215;28;20027;-72
2021/09/25 05:19:57;;;;;;;34.65;5.63;;;;;;;12.35;74.05;99506.72;5106995;28;20080;-73
2021/09/25 05:22:22;;;;;;;30.20;6.30;;;;;;;12.38;74.22;99496.22;5107082;28;20492;-73
2021/09/25 05:24:47;;;;;;;28.27;4.30;;;;;;;12.43;74.19;99507.34;5106857;28;20400;-74
2021/09/25 05:27:13;;;;;;;32.15;5.00;;;;;;;12.52;73.67;99501.00;5088809;28;20035;-73
2021/09/25 05:29:39;;;;;;;27.27;4.80;;;;;;;12.57;74.14;99509.50;5107002;28;20062;-74
2021/09/25 05:32:05;;;;;;;25.38;4.60;;;;;;;12.62;74.03;99512.81;5107005;28;20099;-75
2021/09/25 05:34:31;;;;;;;25.35;5.45;;;;;;;12.79;74.06;99516.66;5088509;28;20031;-74
2021/09/25 05:36:57;;;;;;;24.52;3.85;;;;;;;12.92;73.82;99506.69;5106727;28;20016;-74
2021/09/25 05:39:22;;;;;;;24.65;4.53;;;;;;;13.12;73.52;99516.47;5106734;28;20034;-73
2021/09/25 05:41:48;;;;;;;17.67;3.55;;;;;;;13.24;72.94;99506.53;5106969;28;20034;-77
2021/09/25 05:44:13;;;;;;;28.38;5.07;;;;;;;13.59;72.34;99524.47;5106796;28;20128;-72
2021/09/25 05:46:39;;;;;;;22.48;5.18;;;;;;;13.80;72.36;99535.88;5106782;28;20016;-73
2021/09/25 05:49:04;;;;;;;22.05;4.22;;;;;;;14.11;71.55;99537.41;5106615;28;20061;-72
2021/09/25 05:51:30;;;;;;;17.17;3.38;;;;;;;14.37;71.50;99550.38;5106303;28;20050;-73
2021/09/25 05:53:56;;;;;;;25.88;3.70;;;;;;;14.70;70.54;99546.50;5106661;28;20472;-72
2021/09/25 05:56:21;;;;;;;22.58;4.60;;;;;;;14.94;69.38;99563.00;5106116;28;20053;-72
2021/09/25 05:58:47;;;;;;;28.60;5.60;;;;;;;15.20;67.36;99558.47;5106226;28;20046;-72
2021/09/25 06:01:12;;;;;;;24.23;4.75;;;;;;;15.41;67.18;99555.03;5106404;28;20092;-73
2021/09/25 06:03:37;;;;;;;19.13;3.97;;;;;;;15.63;66.75;99562.81;5088089;28;20020;-74
2021/09/25 06:06:03;;;;;;;19.45;3.78;;;;;;;15.85;66.15;99577.56;5087972;28;20360;-74
2021/09/25 06:08:28;;;;;;;15.13;3.42;;;;;;;16.09;65.73;99569.56;5106083;28;20047;-73
2021/09/25 06:10:53;;;;;;;22.40;4.90;;;;;;;16.46;64.33;99572.28;5106571;28;20024;-74
2021/09/25 06:13:19;;;;;;;16.17;4.38;;;;;;;16.70;63.45;99582.53;5104902;28;20015;-73
2021/09/25 06:15:45;;;;;;;27.08;4.72;;;;;;;16.90;62.25;99586.81;5106262;28;20051;-73
2021/09/25 06:18:13;;;;;;;28.70;4.15;;;;;;;16.96;61.14;99578.66;5106056;28;20051;-73
2021/09/25 06:20:40;;;;;;;19.77;3.63;;;;;;;17.30;60.90;99584.03;5105880;28;20020;-72
2021/09/25 06:23:06;;;;;;;20.13;4.00;;;;;;;17.51;59.63;99581.25;5105834;28;20024;-73
2021/09/25 06:25:31;;;;;;;21.73;3.60;;;;;;;17.74;59.14;99591.50;5106088;28;20032;-73
2021/09/25 06:27:57;;;;;;;25.00;3.53;;;;;;;17.77;57.72;99588.72;5087555;28;20468;-71
2021/09/25 06:30:22;;;;;;;22.45;4.55;;;;;;;17.83;57.70;99580.53;5105887;28;20040;-72
2021/09/25 06:32:48;;;;;;;22.88;4.90;;;;;;;18.16;57.38;99592.84;5087726;28;20027;-73
2021/09/25 06:35:15;;;;;;;18.27;3.95;;;;;;;18.34;56.82;99600.66;5105681;28;20496;-73
2021/09/25 06:37:41;;;;;;;23.65;3.72;;;;;;;18.65;56.00;99599.00;5087388;28;20020;-73
2021/09/25 06:40:10;;;;;;;19.33;4.53;;;;;;;18.77;55.34;99605.34;5087515;28;20024;-74
2021/09/25 06:42:36;;;;;;;18.48;3.58;;;;;;;18.88;55.20;99611.78;5105618;28;20031;-73
2021/09/25 06:45:01;;;;;;;19.17;4.25;;;;;;;19.13;54.13;99615.69;5105671;28;20028;-73
2021/09/25 06:47:27;;;;;;;16.13;3.90;;;;;;;19.18;54.02;99622.41;5105698;28;20024;-72
2021/09/25 06:49:52;;;;;;;20.05;3.72;;;;;;;19.48;53.35;99636.50;5105236;28;20410;-67
2021/09/25 06:52:18;;;;;;;19.85;4.03;;;;;;;19.80;52.15;99631.13;5105463;28;20016;-64
2021/09/25 06:54:43;;;;;;;19.25;3.85;;;;;;;19.79;51.89;99620.69;5105558;28;20024;-68
2021/09/25 06:57:10;;;;;;;13.45;3.53;;;;;;;20.09;51.48;99638.22;5105480;28;20236;-73
2021/09/25 06:59:36;;;;;;;18.75;3.85;;;;;;;20.25;50.46;99659.22;5105568;28;20016;-71
2021/09/25 07:02:01;;;;;;;19.02;4.80;;;;;;;20.37;50.48;99643.56;5105693;28;20020;-71
2021/09/25 07:04:27;;;;;;;18.08;3.97;;;;;;;20.73;49.71;99646.66;5105405;28;20383;-72
2021/09/25 07:06:52;;;;;;;16.42;3.72;;;;;;;21.02;48.94;99654.53;5105229;28;20098;-73
2021/09/25 07:09:18;;;;;;;14.10;4.28;;;;;;;21.23;47.98;99662.81;5087176;28;20059;-74
2021/09/25 07:11:43;;;;;;;21.50;3.85;;;;;;;21.07;47.92;99654.22;5105363;28;20080;-73
2021/09/25 07:14:08;;;;;;;17.73;3.65;;;;;;;21.05;48.43;99668.34;5105138;28;20577;-73
2021/09/25 07:16:35;;;;;;;16.80;3.22;;;;;;;21.33;47.63;99668.34;5105040;28;20024;-74
2021/09/25 07:19:04;;;;;;;13.27;3.28;;;;;;;21.41;47.63;99654.63;5086781;28;20031;-74
2021/09/25 07:21:30;;;;;;;17.52;3.33;;;;;;;21.63;45.90;99666.44;5104859;28;20040;-73
2021/09/25 07:23:55;;;;;;;14.45;3.22;;;;;;;21.68;46.38;99677.50;5104495;28;20044;-73
2021/09/25 07:26:20;;;;;;;19.15;3.83;;;;;;;21.92;46.13;99668.91;5104842;28;20483;-74
2021/09/25 07:28:46;;;;;;;9.70;2.47;;;;;;;21.98;46.15;99670.31;5104757;28;20024;-70
2021/09/25 07:31:11;;;;;;;11.60;3.50;;;;;;;22.04;46.03;99681.28;5104761;28;20122;-71
2021/09/25 07:33:37;;;;;;;13.13;3.40;;;;;;;22.27;45.68;99683.28;5104713;28;20028;-70
2021/09/25 07:36:03;;;;;;;20.33;3.22;;;;;;;22.27;44.87;99686.78;5104373;28;20059;-71
2021/09/25 07:38:28;;;;;;;14.15;3.35;;;;;;;22.08;44.48;99689.84;5104600;28;20035;-72
2021/09/25 07:40:56;;;;;;;15.55;3.35;;;;;;;21.95;44.52;99696.94;5086428;28;20020;-67
2021/09/25 07:43:22;;;;;;;14.38;3.35;;;;;;;21.70;45.15;99699.41;5104546;28;20020;-65
2021/09/25 07:45:48;;;;;;;14.55;3.28;;;;;;;21.57;45.35;99706.44;5104463;28;20028;-68
2021/09/25 07:48:13;;;;;;;15.52;2.70;;;;;;;21.54;45.09;99713.63;5104253;28;20065;-67
2021/09/25 07:50:39;;;;;;;14.40;2.95;;;;;;;21.47;45.14;99709.69;5104070;28;20027;-68
2021/09/25 07:53:05;;;;;;;16.42;2.80;;;;;;;21.24;45.53;99713.81;5104208;28;20055;-69
2021/09/25 07:55:30;;;;;;;13.00;2.70;;;;;;;21.10;45.79;99728.78;5104113;28;20074;-69
2021/09/25 07:57:55;;;;;;;10.75;2.38;;;;;;;21.28;46.46;99754.91;5104197;28;20024;-66
2021/09/25 08:00:24;;;;;;;15.38;2.90;;;;;;;21.55;45.13;99741.72;5104286;28;20028;-66
2021/09/25 08:02:50;;;;;;;9.35;2.38;;;;;;;21.80;45.62;99744.56;5103964;28;20028;-64
2021/09/25 08:05:16;;;;;;;10.35;2.45;;;;;;;22.14;45.72;99749.41;5085688;28;20499;-68
2021/09/25 08:07:41;;;;;;;14.38;3.55;;;;;;;22.40;43.86;99749.38;5104070;28;20027;-72
2021/09/25 08:10:09;;;;;;;10.30;2.17;;;;;;;22.64;43.69;99735.44;5085891;28;20032;-73
2021/09/25 08:12:35;;;;;;;11.70;2.58;;;;;;;22.83;43.15;99755.34;5103878;28;20016;-72
2021/09/25 08:15:02;;;;;;;12.48;2.80;;;;;;;22.91;41.75;99768.84;5103876;28;20421;-68
2021/09/25 08:17:28;;;;;;;11.73;2.42;;;;;;;22.54;41.62;99778.38;5103900;28;20020;-65
2021/09/25 08:19:53;;;;;;;15.30;2.83;;;;;;;22.26;42.10;99766.22;5103639;28;20027;-64
2021/09/25 08:22:19;;;;;;;9.40;2.20;;;;;;;22.28;41.89;99783.66;5103802;28;20502;-65
2021/09/25 08:24:44;;;;;;;15.45;2.90;;;;;;;22.45;42.33;99781.66;5103413;28;20068;-64
2021/09/25 08:27:11;;;;;;;13.05;3.00;;;;;;;22.82;42.02;99786.22;5103252;28;20020;-64
2021/09/25 08:29:36;;;;;;;15.65;2.05;;;;;;;23.00;40.89;99786.72;5103303;28;20027;-64
2021/09/25 08:32:02;;;;;;;13.27;2.47;;;;;;;22.98;40.84;99790.44;5103345;28;20036;-64
2021/09/25 08:34:29;;;;;;;9.50;2.35;;;;;;;22.94;40.44;99810.13;5103762;28;20052;-65
2021/09/25 08:36:55;;;;;;;10.25;2.30;;;;;;;23.03;40.01;99810.31;5102803;28;20108;-65
2021/09/25 08:39:20;;;;;;;8.50;2.08;;;;;;;23.18;40.43;99814.66;5103768;28;20065;-64
2021/09/25 08:41:47;;;;;;;8.60;2.47;;;;;;;23.42;39.38;99814.69;5103411;28;20027;-64
2021/09/25 08:44:12;;;;;;;13.80;2.88;;;;;;;23.65;39.15;99804.25;5103371;28;20032;-64
2021/09/25 08:46:38;;;;;;;14.10;2.58;;;;;;;23.69;39.09;99802.22;5103407;28;20027;-64
2021/09/25 08:49:05;;;;;;;10.32;2.42;;;;;;;23.54;37.90;99799.72;5103372;28;20024;-64
2021/09/25 08:51:32;;;;;;;9.95;2.45;;;;;;;23.38;38.63;99821.16;5103135;28;20020;-64
2021/09/25 08:53:57;;;;;;;8.75;2.30;;;;;;;23.70;38.94;99812.72;5103417;28;20035;-65
2021/09/25 08:56:23;;;;;;;10.05;2.25;;;;;;;24.25;38.69;99821.97;5103480;28;20024;-64
2021/09/25 08:58:48;;;;;;;8.93;2.22;;;;;;;24.73;37.01;99810.34;5103372;28;20061;-65
2021/09/25 09:01:22;;;;;;;13.75;2.30;;;;;;;25.08;36.26;99824.50;5103446;28;20061;-64
2021/09/25 09:03:51;;;;;;;10.68;2.10;;;;;;;25.32;35.65;99830.63;5103584;28;20031;-64
2021/09/25 09:06:31;;;;;;;12.55;2.38;;;;;;;25.28;35.24;99822.06;5103107;28;20042;-64
2021/09/25 09:09:01;;;;;;;10.13;2.80;;;;;;;25.25;35.02;99820.50;5103409;28;20077;-64
2021/09/25 09:11:27;;;;;;;9.85;1.95;;;;;;;25.36;34.74;99830.28;5103199;28;20034;-65
2021/09/25 09:13:56;;;;;;;10.63;1.75;;;;;;;25.58;34.14;99825.00;5103422;28;20098;-65
2021/09/25 09:16:22;;;;;;;11.35;2.78;;;;;;;25.79;34.36;99825.09;5103426;28;20168;-65
2021/09/25 09:18:49;;;;;;;11.02;2.58;;;;;;;25.99;32.74;99831.41;5103211;28;20106;-65
2021/09/25 09:21:16;;;;;;;9.07;1.95;;;;;;;26.02;33.88;99850.75;5103165;28;20020;-65
2021/09/25 09:23:54;;;;;;;6.70;2.30;;;;;;;26.26;33.16;99860.31;5103114;28;20048;-66
2021/09/25 09:26:22;;;;;;;9.02;2.03;;;;;;;26.65;32.93;99849.94;5103329;28;20036;-65
2021/09/25 09:28:49;;;;;;;9.05;2.05;;;;;;;26.93;31.98;99860.91;5103159;28;20061;-64
2021/09/25 09:31:16;;;;;;;7.65;1.63;;;;;;;27.00;30.90;99860.38;5103169;28;20020;-63
2021/09/25 09:33:45;;;;;;;7.45;1.70;;;;;;;26.98;31.35;99866.66;5102906;28;20027;-65
2021/09/25 09:36:12;;;;;;;8.80;1.92;;;;;;;27.14;31.20;99864.50;5102675;28;20020;-65
2021/09/25 09:38:42;;;;;;;9.18;1.77;;;;;;;27.54;30.50;99862.81;5103159;28;20028;-66
2021/09/25 09:41:09;;;;;;;10.87;1.90;;;;;;;27.22;30.82;99854.84;5103186;28;20074;-66
2021/09/25 09:43:36;;;;;;;7.22;1.48;;;;;;;27.20;30.99;99848.84;5102916;28;20024;-65
2021/09/25 09:46:02;;;;;;;4.78;1.75;;;;;;;27.26;30.08;99857.25;5103174;28;20028;-65
2021/09/25 09:48:28;;;;;;;10.75;3.72;;;;;;;27.27;29.89;99870.44;5106332;28;20105;-65
2021/09/25 09:50:54;;;;;;;7.43;1.65;;;;;;;27.41;30.18;99873.72;5106457;28;20017;-65
2021/09/25 09:53:19;;;;;;;6.78;1.65;;;;;;;27.78;30.49;99882.94;5106700;28;20103;-65
2021/09/25 09:55:45;;;;;;;7.47;1.70;;;;;;;27.95;29.34;99871.59;5088375;28;20035;-66
2021/09/25 09:58:10;;;;;;;7.00;1.95;;;;;;;28.19;29.14;99883.66;5106496;28;20032;-66
2021/09/25 10:00:37;;;;;;;8.73;1.55;;;;;;;28.33;28.64;99876.22;5106651;28;20126;-65
2021/09/25 10:03:03;;;;;;;6.47;1.42;;;;;;;28.73;28.38;99889.50;5106389;28;20523;-66
2021/09/25 10:05:28;;;;;;;5.85;1.55;;;;;;;28.90;27.46;99886.06;5106311;28;20035;-65
2021/09/25 10:07:54;;;;;;;6.70;1.70;;;;;;;28.84;26.96;99894.66;5106388;28;20017;-65
2021/09/25 10:10:22;;;;;;;7.32;1.73;;;;;;;28.75;28.34;99896.38;5106310;28;20032;-65
2021/09/25 10:12:48;;;;;;;6.78;1.75;;;;;;;28.98;27.85;99909.41;5106237;28;20024;-64
2021/09/25 10:15:13;;;;;;;6.97;1.55;;;;;;;29.07;27.15;99905.03;5106377;28;20035;-64
2021/09/25 10:17:42;;;;;;;7.55;1.67;;;;;;;28.90;27.13;99903.94;5106030;28;20181;-65
2021/09/25 10:20:08;;;;;;;8.32;1.90;;;;;;;28.69;27.14;99910.31;5105838;28;20436;-65
2021/09/25 10:22:35;;;;;;;3.67;1.40;;;;;;;28.44;27.10;99923.25;5088083;28;20043;-65
2021/09/25 10:25:06;;;;;;;10.38;1.88;;;;;;;28.33;26.55;99921.59;5067818;28;20140;-66
2021/09/25 10:27:35;;;;;;;5.28;1.15;;;;;;;27.76;28.11;99927.56;5065845;28;20377;-64
2021/09/25 10:30:04;;;;;;;5.65;1.40;;;;;;;27.84;27.95;99933.06;5065643;28;20033;-64
2021/09/25 10:32:40;;;;;;;6.13;1.90;;;;;;;27.87;28.18;99929.25;5065447;28;20017;-65
2021/09/25 10:35:16;;;;;;;5.30;1.67;;;;;;;27.66;28.30;99931.00;5065328;28;20021;-65
2021/09/25 10:37:49;;;;;;;3.88;0.85;;;;;;;27.61;28.78;99930.56;5065560;28;20025;-65
2021/09/25 10:40:18;;;;;;;6.70;1.92;;;;;;;27.80;27.61;99940.47;5065699;28;20024;-65
2021/09/25 10:42:57;;;;;;;5.53;1.05;;;;;;;27.46;27.58;99932.78;5065722;28;20043;-64
2021/09/25 10:45:37;;;;;;;6.70;1.10;;;;;;;27.07;28.08;99944.97;5065509;28;20025;-65
2021/09/25 10:48:22;;;;;;;3.35;1.10;;;;;;;26.83;28.18;99948.72;5063835;28;20036;-65
2021/09/25 10:50:49;;;;;;;6.15;1.50;;;;;;;26.63;28.48;99937.06;5063724;28;20021;-65
2021/09/25 10:53:17;;;;;;;4.47;1.35;;;;;;;26.30;28.56;99963.69;5065314;28;20045;-65
2021/09/25 10:55:49;;;;;;;7.00;0.90;;;;;;;26.30;28.45;99957.53;5065060;28;20399;-64
2021/09/25 10:58:19;;;;;;;6.90;1.23;;;;;;;26.37;28.47;99958.75;5064209;28;20096;-65
2021/09/25 11:01:05;;;;;;;4.50;1.25;;;;;;;26.61;27.97;99965.66;5065222;28;20025;-64
2021/09/25 11:03:39;;;;;;;6.05;1.58;;;;;;;26.70;27.91;99970.22;5065192;28;20025;-66
2021/09/25 11:06:11;;;;;;;6.72;0.98;;;;;;;27.01;27.93;99973.94;5064819;28;20029;-65
2021/09/25 11:08:38;;;;;;;5.78;1.02;;;;;;;27.18;27.86;99965.34;5064938;28;20024;-64
2021/09/25 11:11:15;;;;;;;8.70;1.30;;;;;;;27.49;27.22;99976.97;5064977;28;20109;-65
2021/09/25 11:14:02;;;;;;;3.38;1.00;;;;;;;27.98;26.88;99979.81;5064840;28;20032;-65
2021/09/25 11:17:15;;;;;;;5.80;1.02;;;;;;;28.09;26.02;99981.53;5064825;28;20055;-64
2021/09/25 11:19:51;;;;;;;5.82;1.85;;;;;;;27.26;27.18;99980.66;5050102;28;20033;-64
2021/09/25 11:22:27;;;;;;;7.18;1.67;;;;;;;26.56;28.11;99986.50;5064357;28;20082;-65
2021/09/25 11:24:55;;;;;;;8.57;1.65;;;;;;;25.89;29.34;100000.69;5095598;28;20131;-65